THY2DQ EDDK-LTFM
Flight info
| Callsign | THY2DQ |
|---|---|
| Flight time | N/A |
| Altitude | 35000 |
| Route | KUMIK1R KUMIK L603 TESGA DCT ESATI DCT BARSU DCT DEXIT DCT ARSIN/N0450F370 DCT GITAS DCT MAVIR DCT TIMUR L606 GASRU DCT RILEX |
| Aircraft | B738/M-SDE2E3FGHIRWXY/LB1 |
Departure
| Time | 2026-04-23 05:11 |
|---|---|
| Airport | Cologne Bonn Airport (EDDK) |
Arrival
| Time | N/A |
|---|---|
| Airport | İstanbul Airport (LTFM) |
| Time | Latitude | Longitude | Altitude | Speed | Heading |
|---|---|---|---|---|---|
| 2026-04-23 04:46 | 50.88107 | 7.12096 | 234 ft | 0 kts | 216° |
| 2026-04-23 05:05 | 50.88108 | 7.12096 | 231 ft | 1 kts | 216° |
| 2026-04-23 05:06 | 50.88127 | 7.12121 | 233 ft | 4 kts | 219° |
| 2026-04-23 05:06 | 50.88144 | 7.12140 | 232 ft | 4 kts | 184° |
| 2026-04-23 05:06 | 50.88164 | 7.12126 | 231 ft | 4 kts | 131° |
| 2026-04-23 05:06 | 50.88178 | 7.12098 | 232 ft | 1 kts | 126° |
| 2026-04-23 05:09 | 50.88172 | 7.12111 | 233 ft | 7 kts | 126° |
| 2026-04-23 05:09 | 50.88124 | 7.12217 | 232 ft | 14 kts | 126° |
| 2026-04-23 05:09 | 50.88083 | 7.12354 | 232 ft | 14 kts | 122° |
| 2026-04-23 05:09 | 50.88035 | 7.12478 | 231 ft | 13 kts | 120° |
| 2026-04-23 05:10 | 50.87990 | 7.12613 | 231 ft | 15 kts | 105° |
| 2026-04-23 05:10 | 50.87999 | 7.12775 | 237 ft | 15 kts | 74° |
| 2026-04-23 05:10 | 50.88003 | 7.12931 | 238 ft | 14 kts | 101° |
| 2026-04-23 05:10 | 50.87927 | 7.13084 | 238 ft | 32 kts | 137° |
| 2026-04-23 05:11 | 50.87589 | 7.13573 | 238 ft | 98 kts | 137° |
| 2026-04-23 05:11 | 50.86942 | 7.14510 | 258 ft | 151 kts | 137° |
| 2026-04-23 05:11 | 50.86073 | 7.15769 | 455 ft | 180 kts | 137° |
| 2026-04-23 05:11 | 50.85158 | 7.17035 | 1338 ft | 170 kts | 138° |
| 2026-04-23 05:12 | 50.84240 | 7.18299 | 1915 ft | 182 kts | 138° |
| 2026-04-23 05:12 | 50.83225 | 7.19716 | 2293 ft | 205 kts | 137° |
| 2026-04-23 05:12 | 50.82174 | 7.21306 | 2801 ft | 212 kts | 128° |
| 2026-04-23 05:12 | 50.81501 | 7.23370 | 3333 ft | 213 kts | 102° |
| 2026-04-23 05:13 | 50.81306 | 7.25717 | 3742 ft | 224 kts | 94° |
| 2026-04-23 05:13 | 50.81098 | 7.28241 | 4070 ft | 237 kts | 95° |
| 2026-04-23 05:13 | 50.80872 | 7.30846 | 4617 ft | 240 kts | 95° |
| 2026-04-23 05:14 | 50.80414 | 7.36079 | 5811 ft | 242 kts | 95° |
| 2026-04-23 05:14 | 50.80176 | 7.38813 | 6122 ft | 260 kts | 95° |
| 2026-04-23 05:14 | 50.79924 | 7.41694 | 6773 ft | 266 kts | 96° |
| 2026-04-23 05:14 | 50.79667 | 7.44600 | 7531 ft | 268 kts | 96° |
| 2026-04-23 05:15 | 50.79408 | 7.47535 | 8244 ft | 271 kts | 96° |
| 2026-04-23 05:15 | 50.79146 | 7.50510 | 8949 ft | 275 kts | 96° |